Time;durP1;ratioP1;P1;durP2;ratioP2;P2;SDS_P1;SDS_P2;PMS_P1;PMS_P2;Temp;Humidity;BMP_temperature;BMP_pressure;BME280_temperature;BME280_humidity;BME280_pressure;Samples;Min_cycle;Max_cycle;Signal;HPM_P1;HPM_P2
2021/08/12 00:01:11;;;;;;;8.50;5.20;;;;;;;23.62;47.24;101367.75;5012180;28;20186;-67
2021/08/12 00:03:36;;;;;;;8.50;5.63;;;;;;;23.70;45.95;101371.66;5006415;28;20183;-66
2021/08/12 00:06:02;;;;;;;10.47;5.90;;;;;;;23.68;47.85;101371.38;5012076;28;20174;-67
2021/08/12 00:08:27;;;;;;;9.07;5.23;;;;;;;23.71;45.39;101376.84;4994193;28;20287;-66
2021/08/12 00:10:53;;;;;;;8.07;5.20;;;;;;;22.91;44.39;101255.66;5029945;28;20177;-66
2021/08/12 00:13:20;;;;;;;10.43;5.13;;;;;;;23.77;47.16;101382.50;5012899;28;20188;-67
2021/08/12 00:15:46;;;;;;;7.93;5.10;;;;;;;23.78;47.52;101390.50;5018882;28;20201;-67
2021/08/12 00:18:12;;;;;;;8.77;5.43;;;;;;;23.75;47.35;101385.09;5020319;28;20180;-66
2021/08/12 00:20:38;;;;;;;9.20;5.27;;;;;;;23.72;48.42;101388.91;5012244;28;20189;-66
2021/08/12 00:23:04;;;;;;;7.00;5.30;;;;;;;23.69;45.37;101389.94;5011322;28;20178;-67
2021/08/12 00:25:29;;;;;;;8.97;5.03;;;;;;;23.67;45.34;101389.66;4994342;28;20220;-67
2021/08/12 00:27:55;;;;;;;9.40;5.57;;;;;;;23.53;45.29;101359.44;5011518;28;20193;-66
2021/08/12 00:30:21;;;;;;;10.00;5.30;;;;;;;23.63;45.19;101387.06;5011695;28;20174;-66
2021/08/12 00:32:46;;;;;;;7.93;5.27;;;;;;;23.61;44.79;101388.84;5011383;28;20186;-66
2021/08/12 00:35:12;;;;;;;10.63;5.50;;;;;;;23.54;44.90;101386.47;5011561;28;20602;-67
2021/08/12 00:37:38;;;;;;;9.53;5.40;;;;;;;23.58;45.92;101398.31;5011087;28;20803;-66
2021/08/12 00:40:05;;;;;;;6.67;5.00;;;;;;;23.25;46.21;101345.13;5011258;28;20186;-66
2021/08/12 00:42:30;;;;;;;9.07;6.13;;;;;;;23.59;46.61;101394.25;5011538;28;20185;-66
2021/08/12 00:44:56;;;;;;;12.60;5.40;;;;;;;23.62;47.36;101396.03;5015927;28;20177;-66
2021/08/12 00:47:21;;;;;;;8.60;5.27;;;;;;;23.64;46.59;101394.25;5030792;28;20684;-66
2021/08/12 00:49:47;;;;;;;6.80;5.07;;;;;;;23.55;44.67;101391.63;5018618;28;20675;-66
2021/08/12 00:52:12;;;;;;;9.00;5.80;;;;;;;23.49;45.14;101393.63;5010885;28;20188;-66
2021/08/12 00:54:39;;;;;;;11.57;5.60;;;;;;;23.48;45.04;101396.97;5011957;28;20269;-66
2021/08/12 00:57:06;;;;;;;7.13;4.60;;;;;;;23.55;45.51;101405.75;5010739;28;20205;-67
2021/08/12 00:59:35;;;;;;;12.10;5.70;;;;;;;23.46;46.44;101372.03;5029929;28;20177;-66
2021/08/12 01:02:02;;;;;;;11.83;5.47;;;;;;;23.65;45.54;101398.63;5030568;28;20208;-66
2021/08/12 01:04:27;;;;;;;10.43;5.63;;;;;;;23.69;45.94;101413.34;5016209;28;20178;-67
2021/08/12 01:07:04;;;;;;;8.80;5.40;;;;;;;23.74;46.23;101409.75;5010267;28;20249;-66
2021/08/12 01:09:41;;;;;;;7.33;5.23;;;;;;;23.74;47.11;101409.00;5010955;28;20169;-67
2021/08/12 01:12:16;;;;;;;7.97;5.47;;;;;;;23.65;47.17;101409.19;5010871;28;20284;-67
2021/08/12 01:15:08;;;;;;;7.53;5.10;;;;;;;23.72;46.75;101403.06;5011477;28;20165;-67
2021/08/12 01:18:02;;;;;;;9.23;5.47;;;;;;;23.73;47.66;101407.44;4982923;28;20225;-66
2021/08/12 01:20:39;;;;;;;9.97;5.37;;;;;;;23.75;48.05;101414.13;5001059;28;20610;-66
2021/08/12 01:23:10;;;;;;;7.47;5.57;;;;;;;23.78;47.78;101420.84;5010767;28;20177;-66
2021/08/12 01:25:37;;;;;;;9.03;5.63;;;;;;;23.80;47.74;101419.06;5003537;28;20568;-66
2021/08/12 01:28:15;;;;;;;11.37;5.47;;;;;;;23.77;47.73;101416.47;5000536;28;20250;-66
2021/08/12 01:31:12;;;;;;;9.40;5.33;;;;;;;23.72;48.69;101412.34;5024421;28;20192;-67
2021/08/12 01:33:59;;;;;;;9.93;5.40;;;;;;;23.54;46.86;101414.78;5017398;28;20268;-66
2021/08/12 01:36:27;;;;;;;7.17;5.27;;;;;;;22.49;48.20;101280.19;5030588;28;20196;-66
2021/08/12 01:38:55;;;;;;;7.67;5.37;;;;;;;23.38;49.39;101418.25;5027991;28;20177;-66
2021/08/12 01:41:21;;;;;;;6.63;4.77;;;;;;;23.36;49.34;101417.97;5010824;28;20260;-66
2021/08/12 01:43:47;;;;;;;7.23;5.30;;;;;;;23.12;49.82;101400.50;5010317;28;20680;-66
2021/08/12 01:46:13;;;;;;;6.57;5.10;;;;;;;23.21;49.88;101425.81;5010598;28;20687;-66
2021/08/12 01:48:39;;;;;;;8.53;5.33;;;;;;;22.55;49.79;101321.34;5010058;28;20264;-66
2021/08/12 01:51:06;;;;;;;9.00;5.47;;;;;;;23.14;49.71;101415.69;5010310;28;20189;-66
2021/08/12 01:53:32;;;;;;;7.43;5.73;;;;;;;22.99;49.67;101411.44;5010533;28;20204;-66
2021/08/12 01:55:58;;;;;;;9.13;5.77;;;;;;;22.47;50.10;101342.81;5010513;28;20194;-66
2021/08/12 01:58:26;;;;;;;12.60;5.90;;;;;;;22.90;50.49;101431.38;5010216;28;20564;-66
2021/08/12 02:00:53;;;;;;;13.57;6.40;;;;;;;22.90;50.05;101426.50;5010418;28;20261;-67
2021/08/12 02:03:20;;;;;;;12.87;6.37;;;;;;;22.85;50.20;101429.25;5009939;28;20259;-67
2021/08/12 02:05:47;;;;;;;13.13;5.73;;;;;;;22.85;49.94;101424.41;5010623;28;20177;-66
2021/08/12 02:08:13;;;;;;;16.20;6.30;;;;;;;22.19;49.72;101329.63;5009883;28;20225;-66
2021/08/12 02:10:42;;;;;;;22.27;6.83;;;;;;;22.71;49.98;101410.34;5024427;28;20212;-66
2021/08/12 02:13:11;;;;;;;12.47;6.37;;;;;;;22.77;50.13;101428.94;5029690;28;20175;-66
2021/08/12 02:15:37;;;;;;;10.43;6.20;;;;;;;22.65;50.89;101426.47;5004045;28;20181;-66
2021/08/12 02:18:04;;;;;;;13.37;5.47;;;;;;;22.59;51.31;101420.78;5009930;28;20687;-66
2021/08/12 02:20:30;;;;;;;10.93;6.23;;;;;;;21.84;51.30;101318.41;5009906;28;20173;-66
2021/08/12 02:23:11;;;;;;;12.93;6.03;;;;;;;22.29;51.64;101384.66;5010021;28;20207;-66
2021/08/12 02:25:50;;;;;;;10.17;5.50;;;;;;;22.07;51.66;101362.59;5010492;28;20158;-66
2021/08/12 02:28:17;;;;;;;9.33;4.57;;;;;;;22.47;52.17;101429.59;5021919;28;20280;-66
2021/08/12 02:30:46;;;;;;;12.67;5.80;;;;;;;22.49;51.79;101425.03;5029586;28;20303;-66
2021/08/12 02:33:15;;;;;;;10.83;6.27;;;;;;;22.48;51.29;101434.78;5015901;28;20734;-66
2021/08/12 02:35:42;;;;;;;10.70;5.50;;;;;;;22.02;51.25;101357.66;5010091;28;20718;-66
2021/08/12 02:38:12;;;;;;;9.17;5.97;;;;;;;22.17;51.40;101392.25;5029508;28;20188;-66
2021/08/12 02:40:39;;;;;;;10.53;5.93;;;;;;;22.39;51.11;101414.31;5013570;28;20628;-66
2021/08/12 02:43:05;;;;;;;9.83;5.67;;;;;;;22.48;51.21;101431.16;5009684;28;20228;-66
2021/08/12 02:45:33;;;;;;;10.17;4.80;;;;;;;22.51;51.03;101435.84;5010053;28;20185;-66
2021/08/12 02:48:00;;;;;;;8.03;5.77;;;;;;;22.46;51.16;101437.28;5010078;28;20224;-66
2021/08/12 02:50:28;;;;;;;8.17;5.30;;;;;;;21.78;51.73;101342.97;5009720;28;20196;-66
2021/08/12 02:52:55;;;;;;;8.53;5.07;;;;;;;22.45;51.81;101443.44;5010145;28;20200;-66
2021/08/12 02:55:21;;;;;;;11.60;5.13;;;;;;;22.23;51.90;101415.69;5009626;28;20204;-66
2021/08/12 02:57:47;;;;;;;7.97;5.50;;;;;;;22.38;51.87;101450.28;5009655;28;20205;-66
2021/08/12 03:00:14;;;;;;;8.80;5.20;;;;;;;22.34;51.58;101441.22;5009412;28;20177;-66
2021/08/12 03:02:46;;;;;;;13.97;5.70;;;;;;;22.32;50.90;101434.53;5009139;28;20320;-66
2021/08/12 03:05:14;;;;;;;13.43;5.70;;;;;;;22.31;51.10;101447.09;5010088;28;20246;-66
2021/08/12 03:07:42;;;;;;;17.17;6.10;;;;;;;22.26;51.24;101450.63;5009395;28;20311;-66
2021/08/12 03:10:10;;;;;;;14.63;5.40;;;;;;;22.19;51.59;101456.66;5009398;28;20212;-66
2021/08/12 03:12:35;;;;;;;10.23;5.33;;;;;;;22.19;51.59;101448.97;5017335;28;20184;-66
2021/08/12 03:15:02;;;;;;;9.70;5.40;;;;;;;22.14;51.77;101448.91;5017133;28;20186;-66
2021/08/12 03:17:28;;;;;;;8.40;5.40;;;;;;;21.58;51.83;101362.66;5009306;28;20347;-66
2021/08/12 03:19:54;;;;;;;15.77;5.90;;;;;;;22.14;51.94;101455.34;4992357;28;20262;-66
2021/08/12 03:22:24;;;;;;;7.77;5.03;;;;;;;22.20;51.87;101458.22;5023636;28;20214;-66
2021/08/12 03:24:52;;;;;;;11.63;6.20;;;;;;;21.47;51.85;101348.38;5029671;28;20260;-66
2021/08/12 03:27:17;;;;;;;8.27;4.83;;;;;;;21.77;52.02;101416.81;5025894;28;20177;-66
2021/08/12 03:29:45;;;;;;;9.43;4.83;;;;;;;22.23;52.43;101477.78;5013057;28;20199;-66
2021/08/12 03:32:11;;;;;;;9.33;5.27;;;;;;;22.25;52.31;101482.94;5012195;28;20221;-66
2021/08/12 03:34:37;;;;;;;19.07;6.07;;;;;;;22.26;51.89;101476.03;5013060;28;20205;-66
2021/08/12 03:37:03;;;;;;;7.67;5.07;;;;;;;22.17;52.34;101478.97;5013032;28;20281;-67
2021/08/12 03:39:30;;;;;;;14.63;6.10;;;;;;;21.93;52.51;101493.25;4995023;28;20196;-66
2021/08/12 03:41:56;;;;;;;12.93;5.33;;;;;;;21.95;52.59;101484.31;5012690;28;20560;-66
2021/08/12 03:44:22;;;;;;;12.67;5.67;;;;;;;21.95;52.72;101496.34;5012399;28;20185;-66
2021/08/12 03:46:47;;;;;;;10.13;5.40;;;;;;;21.95;53.04;101495.59;5012991;28;20209;-66
2021/08/12 03:49:13;;;;;;;12.57;5.37;;;;;;;21.93;53.22;101479.16;5012472;28;20211;-66
2021/08/12 03:51:38;;;;;;;13.30;5.67;;;;;;;21.41;53.11;101394.69;5012808;28;20896;-66
2021/08/12 03:54:04;;;;;;;18.13;6.40;;;;;;;21.99;53.16;101490.50;5030022;28;20191;-66
2021/08/12 03:56:29;;;;;;;24.27;6.97;;;;;;;22.01;53.13;101493.63;5025517;28;20205;-66
2021/08/12 03:58:55;;;;;;;13.57;6.00;;;;;;;22.00;53.17;101484.38;5012657;28;20651;-66
2021/08/12 04:01:20;;;;;;;15.53;5.57;;;;;;;21.57;52.85;101417.50;5012440;28;20190;-66
2021/08/12 04:03:46;;;;;;;9.97;4.73;;;;;;;22.13;52.92;101500.97;5011893;28;20185;-66
2021/08/12 04:06:12;;;;;;;9.97;5.77;;;;;;;22.19;52.79;101499.81;5019819;28;20238;-65
2021/08/12 04:08:38;;;;;;;12.70;5.87;;;;;;;22.14;52.74;101508.97;5004445;28;20270;-66
2021/08/12 04:11:03;;;;;;;19.83;6.93;;;;;;;21.83;52.89;101468.44;5010498;28;20615;-66
2021/08/12 04:13:29;;;;;;;14.17;5.57;;;;;;;22.01;52.88;101522.63;4993823;28;20222;-66
2021/08/12 04:15:55;;;;;;;9.77;5.67;;;;;;;22.00;52.54;101518.25;4992306;28;20614;-66
2021/08/12 04:18:21;;;;;;;8.00;5.13;;;;;;;21.87;53.77;101517.00;4992525;28;20189;-66
2021/08/12 04:20:46;;;;;;;9.73;4.80;;;;;;;21.92;53.41;101525.56;4992401;28;20265;-66
2021/08/12 04:23:12;;;;;;;10.50;5.00;;;;;;;21.87;54.00;101517.00;4991852;28;20185;-66
2021/08/12 04:25:37;;;;;;;9.97;5.67;;;;;;;21.83;54.47;101511.56;5012126;28;20170;-66
2021/08/12 04:28:03;;;;;;;10.33;5.20;;;;;;;21.98;53.49;101511.53;5000776;28;20265;-66
2021/08/12 04:30:29;;;;;;;10.70;5.53;;;;;;;22.11;53.20;101526.88;4992694;28;20177;-66
2021/08/12 04:32:55;;;;;;;8.43;4.80;;;;;;;22.16;52.34;101540.31;4980375;28;20232;-66
2021/08/12 04:35:20;;;;;;;8.27;4.90;;;;;;;22.23;51.88;101530.66;5011628;28;20671;-66
2021/08/12 04:37:47;;;;;;;7.93;4.27;;;;;;;21.82;51.88;101466.91;5001515;28;20202;-67
2021/08/12 04:40:15;;;;;;;7.53;4.00;;;;;;;22.32;50.97;101536.94;4991825;28;20217;-67
2021/08/12 04:42:41;;;;;;;6.10;3.63;;;;;;;22.41;50.47;101528.34;4994314;28;20269;-66
2021/08/12 04:45:07;;;;;;;6.07;4.03;;;;;;;22.51;50.26;101543.16;4990787;28;20170;-66
2021/08/12 04:47:33;;;;;;;8.43;4.00;;;;;;;22.59;49.98;101539.44;4988593;28;20810;-66
2021/08/12 04:49:58;;;;;;;9.23;4.53;;;;;;;22.66;49.96;101541.03;4989277;28;20465;-66
2021/08/12 04:52:24;;;;;;;11.63;6.20;;;;;;;22.77;50.12;101538.38;4974578;28;20930;-66
2021/08/12 04:54:50;;;;;;;11.13;8.70;;;;;;;22.76;50.11;101533.97;5000219;28;20181;-67
2021/08/12 04:57:16;;;;;;;11.40;7.80;;;;;;;22.91;50.49;101549.59;4998454;28;20271;-66
2021/08/12 04:59:41;;;;;;;17.03;8.70;;;;;;;23.00;50.70;101549.47;4988479;28;20699;-66
2021/08/12 05:02:07;;;;;;;10.87;8.10;;;;;;;23.03;50.08;101559.75;4995736;28;20185;-66
2021/08/12 05:04:32;;;;;;;15.17;7.70;;;;;;;23.22;50.29;101554.59;4991301;28;20182;-66
2021/08/12 05:06:58;;;;;;;13.00;8.10;;;;;;;23.14;50.53;101534.44;4999561;28;20221;-66
2021/08/12 05:09:23;;;;;;;12.77;7.70;;;;;;;23.41;51.01;101561.50;5006813;28;20189;-66
2021/08/12 05:11:50;;;;;;;16.33;8.03;;;;;;;23.35;51.47;101549.34;4997800;28;20213;-66
2021/08/12 05:14:16;;;;;;;9.47;7.13;;;;;;;23.17;50.93;101510.03;4987087;28;20223;-66
2021/08/12 05:16:41;;;;;;;10.80;7.23;;;;;;;23.67;51.38;101565.88;5002433;28;20202;-66
2021/08/12 05:19:06;;;;;;;11.13;6.33;;;;;;;23.79;50.96;101567.53;4989526;28;20216;-66
2021/08/12 05:21:32;;;;;;;20.57;5.37;;;;;;;23.76;49.88;101553.63;5005675;28;20205;-67
2021/08/12 05:23:57;;;;;;;10.23;4.77;;;;;;;23.88;49.81;101558.88;5005166;28;20197;-66
2021/08/12 05:26:24;;;;;;;9.80;4.30;;;;;;;24.11;49.16;101571.94;5009849;28;20734;-66
2021/08/12 05:28:50;;;;;;;6.70;4.10;;;;;;;24.10;49.62;101561.13;5010225;28;20188;-66
2021/08/12 05:31:15;;;;;;;6.77;4.43;;;;;;;24.30;50.47;101581.63;5002766;28;20189;-66
2021/08/12 05:33:41;;;;;;;5.53;4.30;;;;;;;24.43;50.61;101587.66;4997132;28;20690;-66
2021/08/12 05:36:07;;;;;;;8.53;4.10;;;;;;;24.51;49.77;101588.72;4992279;28;20217;-66
2021/08/12 05:38:32;;;;;;;11.53;5.30;;;;;;;24.59;48.79;101595.50;5002063;28;20468;-66
2021/08/12 05:40:58;;;;;;;7.70;4.63;;;;;;;24.68;49.16;101597.34;5007565;28;20186;-66
2021/08/12 05:43:24;;;;;;;10.77;5.30;;;;;;;24.79;49.21;101597.41;5001488;28;20205;-66
2021/08/12 05:45:50;;;;;;;10.47;5.40;;;;;;;24.76;49.16;101596.34;5005809;28;20558;-66
2021/08/12 05:48:15;;;;;;;9.43;5.53;;;;;;;24.71;50.36;101599.19;5003079;28;20195;-67
2021/08/12 05:50:44;;;;;;;10.80;5.23;;;;;;;24.70;49.43;101581.38;5006795;28;20190;-67
2021/08/12 05:53:17;;;;;;;14.27;5.67;;;;;;;24.97;50.09;101599.81;5001311;28;20268;-66
2021/08/12 05:55:43;;;;;;;10.47;5.27;;;;;;;25.13;48.84;101601.97;5001692;28;20193;-66
2021/08/12 05:58:09;;;;;;;9.50;4.83;;;;;;;24.64;49.37;101529.56;5009038;28;20190;-67
2021/08/12 06:00:35;;;;;;;6.77;4.43;;;;;;;25.28;49.11;101606.16;5000422;28;20189;-66
2021/08/12 06:03:11;;;;;;;11.10;4.93;;;;;;;25.37;48.91;101597.41;5006868;28;20177;-66
2021/08/12 06:05:37;;;;;;;8.13;4.23;;;;;;;25.48;47.57;101605.97;5008241;28;20235;-66
2021/08/12 06:08:05;;;;;;;8.83;4.10;;;;;;;25.66;45.70;101599.81;4987702;28;20230;-66
2021/08/12 06:10:32;;;;;;;9.90;4.23;;;;;;;25.87;45.45;101597.50;4979955;28;20194;-66
2021/08/12 06:12:58;;;;;;;7.37;4.20;;;;;;;25.99;44.94;101604.78;4981971;28;20181;-66
2021/08/12 06:15:25;;;;;;;10.93;4.60;;;;;;;26.07;42.18;101602.97;4988895;28;20660;-66
2021/08/12 06:17:51;;;;;;;7.17;3.93;;;;;;;26.10;43.31;101587.75;4982254;28;20221;-66
2021/08/12 06:20:18;;;;;;;6.67;3.90;;;;;;;26.37;42.01;101599.09;4985076;28;20198;-66
2021/08/12 06:22:44;;;;;;;7.23;3.53;;;;;;;26.51;41.49;101598.00;4989252;28;20186;-66
2021/08/12 06:25:10;;;;;;;7.87;4.13;;;;;;;26.61;42.59;101599.31;4992757;28;20686;-67
2021/08/12 06:27:36;;;;;;;8.37;4.10;;;;;;;26.75;42.08;101601.09;4987932;28;20208;-67
2021/08/12 06:30:03;;;;;;;7.47;3.80;;;;;;;26.95;41.29;101599.97;4990294;28;20206;-66
2021/08/12 06:32:28;;;;;;;6.23;3.63;;;;;;;27.05;41.06;101590.63;4984843;28;20278;-67
2021/08/12 06:34:54;;;;;;;5.53;3.60;;;;;;;27.28;41.01;101600.63;4993502;28;20695;-66
2021/08/12 06:37:19;;;;;;;8.40;3.90;;;;;;;27.42;40.98;101593.84;4978099;28;20740;-66
2021/08/12 06:39:45;;;;;;;5.50;3.67;;;;;;;27.47;40.66;101598.72;4979600;28;20189;-67
2021/08/12 06:42:10;;;;;;;7.67;3.60;;;;;;;27.34;38.58;101584.28;4984977;28;20174;-67
2021/08/12 06:44:36;;;;;;;7.97;3.73;;;;;;;27.53;39.45;101610.09;4989655;28;20190;-67
2021/08/12 06:47:01;;;;;;;9.00;3.90;;;;;;;27.10;40.28;101532.94;4992858;28;20178;-67
2021/08/12 06:49:27;;;;;;;5.63;3.50;;;;;;;27.82;39.28;101612.25;4986138;28;20742;-67
2021/08/12 06:51:53;;;;;;;5.43;4.30;;;;;;;27.84;37.66;101593.31;4989829;28;20225;-67
2021/08/12 06:54:19;;;;;;;5.90;4.05;;;;;;;28.07;38.26;101600.41;4991792;28;20671;-67
2021/08/12 06:56:44;;;;;;;5.28;3.40;;;;;;;28.12;37.52;101602.44;4989772;28;20236;-67
2021/08/12 06:59:09;;;;;;;6.45;3.70;;;;;;;28.20;37.77;101605.47;4992387;28;20204;-67
2021/08/12 07:01:35;;;;;;;6.63;3.60;;;;;;;28.22;37.92;101602.84;4986511;28;20182;-66
2021/08/12 07:04:01;;;;;;;4.78;3.72;;;;;;;28.30;38.49;101595.28;4998106;28;20193;-67
2021/08/12 07:06:26;;;;;;;5.07;3.25;;;;;;;28.50;37.45;101597.69;4996223;28;20182;-67
2021/08/12 07:08:53;;;;;;;6.28;3.50;;;;;;;28.65;35.84;101612.28;5010707;28;20730;-68
2021/08/12 07:11:22;;;;;;;5.22;3.58;;;;;;;28.72;37.11;101606.00;5014428;28;20178;-66
2021/08/12 07:13:49;;;;;;;7.57;3.65;;;;;;;28.38;35.55;101528.63;5014116;28;20177;-67
2021/08/12 07:16:16;;;;;;;7.15;3.83;;;;;;;29.00;36.18;101603.63;5010008;28;20201;-67
2021/08/12 07:18:43;;;;;;;4.35;3.28;;;;;;;29.06;36.19;101602.25;5008348;28;20667;-67
2021/08/12 07:21:19;;;;;;;4.95;3.40;;;;;;;29.07;36.53;101609.50;5008899;28;20170;-67
2021/08/12 07:23:46;;;;;;;5.20;3.72;;;;;;;29.02;34.69;101584.66;5006768;28;20189;-66
2021/08/12 07:26:13;;;;;;;6.70;3.58;;;;;;;28.08;35.19;101436.66;5009882;28;20723;-66
2021/08/12 07:28:42;;;;;;;8.93;3.47;;;;;;;29.30;34.96;101612.84;5012199;28;20276;-66
2021/08/12 07:31:10;;;;;;;6.13;3.50;;;;;;;29.37;34.34;101609.41;5007093;28;20668;-67
2021/08/12 07:33:36;;;;;;;6.13;3.65;;;;;;;29.38;34.70;101605.97;5007751;28;20248;-66
2021/08/12 07:36:02;;;;;;;6.22;3.45;;;;;;;29.55;33.74;101608.63;5012363;28;20209;-67
2021/08/12 07:38:29;;;;;;;6.28;3.53;;;;;;;29.69;34.03;101618.81;5009027;28;20254;-66
2021/08/12 07:40:55;;;;;;;6.28;3.10;;;;;;;29.65;34.50;101602.00;5008722;28;20630;-66
2021/08/12 07:43:20;;;;;;;6.93;3.53;;;;;;;29.82;33.61;101607.44;5010775;28;20260;-67
2021/08/12 07:45:46;;;;;;;7.20;3.00;;;;;;;29.88;33.57;101614.59;5011686;28;20185;-66
2021/08/12 07:48:11;;;;;;;6.05;3.38;;;;;;;29.72;34.15;101589.16;5008602;28;20181;-66
2021/08/12 07:50:37;;;;;;;4.07;3.10;;;;;;;30.02;32.84;101616.22;5009200;28;20664;-67
2021/08/12 07:53:02;;;;;;;5.20;3.05;;;;;;;30.12;33.51;101610.88;5006830;28;20182;-67
2021/08/12 07:55:28;;;;;;;3.88;2.63;;;;;;;30.20;32.95;101623.22;5008482;28;20265;-66
2021/08/12 07:57:53;;;;;;;6.05;3.22;;;;;;;30.29;32.54;101608.53;5008368;28;20236;-67
2021/08/12 08:00:19;;;;;;;4.93;2.90;;;;;;;30.39;32.03;101613.25;5010045;28;20608;-67
2021/08/12 08:02:47;;;;;;;5.63;2.65;;;;;;;29.95;31.48;101538.91;5007206;28;20269;-66
2021/08/12 08:05:14;;;;;;;4.13;2.35;;;;;;;30.57;31.57;101612.41;4990997;28;20268;-66
2021/08/12 08:07:40;;;;;;;7.43;3.22;;;;;;;30.63;31.67;101615.16;5009568;28;20224;-67
2021/08/12 08:10:06;;;;;;;6.57;2.80;;;;;;;30.68;31.12;101611.44;5010455;28;20582;-67
2021/08/12 08:12:31;;;;;;;4.80;2.92;;;;;;;30.78;31.87;101606.81;5007206;28;20174;-67
2021/08/12 08:14:57;;;;;;;5.75;2.78;;;;;;;30.71;29.94;101599.66;5003267;28;20668;-66
2021/08/12 08:17:22;;;;;;;5.32;3.10;;;;;;;30.88;30.94;101602.19;5006761;28;20654;-66
2021/08/12 08:19:48;;;;;;;6.10;2.97;;;;;;;30.99;30.08;101601.97;5012387;28;20716;-66
2021/08/12 08:22:13;;;;;;;8.50;3.20;;;;;;;31.14;30.40;101605.03;5007350;28;20178;-66
2021/08/12 08:24:39;;;;;;;6.65;2.90;;;;;;;31.21;30.77;101593.72;5007323;28;20706;-67
2021/08/12 08:27:04;;;;;;;5.13;3.20;;;;;;;31.28;29.27;101598.75;5006526;28;20182;-67
2021/08/12 08:29:30;;;;;;;7.30;3.08;;;;;;;31.36;30.07;101598.84;5008198;28;20189;-66
2021/08/12 08:31:55;;;;;;;6.47;3.30;;;;;;;31.52;29.99;101592.00;5006661;28;20182;-67
2021/08/12 08:34:21;;;;;;;4.88;3.42;;;;;;;31.52;28.51;101584.16;4984127;28;20685;-66
2021/08/12 08:36:46;;;;;;;4.85;3.22;;;;;;;31.66;28.74;101579.13;5009140;28;20206;-67
2021/08/12 08:39:12;;;;;;;10.00;3.28;;;;;;;31.79;28.48;101579.13;5007702;28;20189;-67
2021/08/12 08:41:38;;;;;;;9.63;3.55;;;;;;;31.91;27.50;101581.16;5006661;28;20255;-67
2021/08/12 08:44:06;;;;;;;5.35;3.47;;;;;;;31.87;28.21;101588.56;5008845;28;20186;-67
2021/08/12 08:46:32;;;;;;;9.35;3.72;;;;;;;32.01;27.85;101578.56;5007495;28;20227;-67
2021/08/12 08:49:02;;;;;;;6.32;3.58;;;;;;;32.02;28.00;101549.34;5006544;28;20312;-67
2021/08/12 08:51:27;;;;;;;6.38;3.15;;;;;;;32.22;26.89;101570.72;5007504;28;20272;-67
2021/08/12 08:53:54;;;;;;;4.13;2.88;;;;;;;32.54;26.68;101585.50;5006938;28;20264;-67
2021/08/12 08:56:20;;;;;;;7.15;3.33;;;;;;;32.68;26.96;101581.22;5006554;28;20233;-67
2021/08/12 08:58:46;;;;;;;7.30;3.15;;;;;;;32.73;26.31;101569.59;5006578;28;20220;-67
2021/08/12 09:01:12;;;;;;;5.10;2.97;;;;;;;32.87;24.90;101578.88;5006073;28;20209;-67
2021/08/12 09:03:37;;;;;;;5.85;3.30;;;;;;;33.00;24.56;101582.38;5006111;28;20212;-67
2021/08/12 09:06:06;;;;;;;8.65;3.05;;;;;;;33.03;23.64;101574.75;5007156;28;20181;-67
2021/08/12 09:08:31;;;;;;;6.72;3.10;;;;;;;33.06;21.90;101587.97;4999285;28;20234;-66
2021/08/12 09:10:57;;;;;;;7.85;3.20;;;;;;;33.02;22.67;101599.81;4989576;28;20185;-66
2021/08/12 09:13:23;;;;;;;5.32;2.97;;;;;;;33.20;23.63;101584.41;4998514;28;20190;-67
2021/08/12 09:15:48;;;;;;;5.35;3.25;;;;;;;33.23;23.71;101579.63;4995603;28;20206;-67
2021/08/12 09:18:27;;;;;;;6.78;3.35;;;;;;;33.26;24.04;101590.00;4996000;28;20182;-67
2021/08/12 09:20:58;;;;;;;4.95;3.22;;;;;;;33.30;23.58;101578.91;4991085;28;20656;-67
2021/08/12 09:23:28;;;;;;;4.80;2.95;;;;;;;33.46;23.54;101577.63;4996148;28;20565;-67
2021/08/12 09:25:55;;;;;;;5.88;2.88;;;;;;;33.20;23.41;101541.31;4998281;28;20317;-67
2021/08/12 09:28:27;;;;;;;5.53;3.50;;;;;;;33.45;22.70;101567.47;4997318;28;20182;-66
2021/08/12 09:31:01;;;;;;;4.13;2.97;;;;;;;33.50;22.96;101578.78;4993012;28;20198;-66
2021/08/12 09:33:32;;;;;;;5.10;3.55;;;;;;;33.49;23.07;101579.34;4992681;28;20189;-67
2021/08/12 09:35:58;;;;;;;6.68;3.17;;;;;;;33.65;23.55;101573.09;5000564;28;20184;-67
2021/08/12 09:38:24;;;;;;;5.75;3.33;;;;;;;33.80;23.32;101567.38;4993569;28;20186;-67
2021/08/12 09:40:55;;;;;;;7.15;3.03;;;;;;;33.89;23.33;101580.44;4993238;28;20193;-67
2021/08/12 09:43:21;;;;;;;7.53;3.03;;;;;;;34.08;23.26;101566.47;4987617;28;20198;-67
2021/08/12 09:45:47;;;;;;;8.30;3.40;;;;;;;34.25;23.81;101567.38;4987156;28;20543;-67
2021/08/12 09:48:18;;;;;;;5.13;2.72;;;;;;;34.18;22.47;101571.03;4986684;28;20264;-67
2021/08/12 09:50:46;;;;;;;5.78;3.08;;;;;;;33.79;22.07;101493.22;4992323;28;20183;-67
2021/08/12 09:53:19;;;;;;;5.40;2.63;;;;;;;34.24;21.79;101568.72;5004038;28;20599;-66
2021/08/12 09:55:46;;;;;;;5.05;2.70;;;;;;;34.30;22.52;101566.47;4998881;28;20188;-67
2021/08/12 09:58:13;;;;;;;9.07;3.13;;;;;;;34.30;22.73;101565.72;4998949;28;20189;-66
2021/08/12 10:00:47;;;;;;;5.60;2.63;;;;;;;34.37;22.14;101562.03;5000756;28;20799;-66
2021/08/12 10:03:20;;;;;;;5.25;2.60;;;;;;;34.32;22.29;101563.78;4994372;28;20178;-67
2021/08/12 10:05:45;;;;;;;7.20;2.75;;;;;;;34.43;22.08;101568.38;4991307;28;20194;-67
2021/08/12 10:08:11;;;;;;;10.63;3.20;;;;;;;34.45;21.79;101560.69;4996336;28;20229;-67
2021/08/12 10:10:38;;;;;;;5.10;2.83;;;;;;;34.52;22.04;101562.03;4996181;28;20214;-67
2021/08/12 10:13:04;;;;;;;6.57;3.05;;;;;;;34.12;22.12;101492.81;5003211;28;20224;-66
2021/08/12 10:15:32;;;;;;;8.27;2.90;;;;;;;34.52;21.98;101573.53;4994592;28;20182;-67
2021/08/12 10:18:01;;;;;;;5.72;2.85;;;;;;;34.55;21.51;101564.50;4996528;28;20197;-67
2021/08/12 10:20:30;;;;;;;4.82;2.97;;;;;;;34.57;21.71;101564.72;4995048;28;20185;-67
2021/08/12 10:22:57;;;;;;;8.27;3.00;;;;;;;34.58;21.26;101569.13;5000169;28;20688;-68
2021/08/12 10:25:24;;;;;;;6.68;2.85;;;;;;;34.34;21.73;101566.09;4998367;28;20186;-69
2021/08/12 10:27:53;;;;;;;5.18;2.53;;;;;;;34.37;21.14;101570.69;4992882;28;20563;-68
2021/08/12 10:30:20;;;;;;;4.07;2.80;;;;;;;34.32;21.91;101565.88;4994934;28;20656;-66
2021/08/12 10:32:54;;;;;;;6.43;2.67;;;;;;;34.37;21.38;101567.78;4998143;28;20637;-66
2021/08/12 10:35:20;;;;;;;4.22;2.97;;;;;;;34.17;21.37;101525.59;4994504;28;20197;-67
2021/08/12 10:37:45;;;;;;;6.32;2.60;;;;;;;34.37;21.28;101577.22;4986616;28;20198;-67
2021/08/12 10:40:14;;;;;;;5.85;2.67;;;;;;;34.38;21.54;101572.97;5000608;28;20186;-67
2021/08/12 10:42:45;;;;;;;3.63;2.60;;;;;;;34.39;20.64;101591.78;4996822;28;20277;-68
2021/08/12 10:45:12;;;;;;;4.75;2.45;;;;;;;34.45;21.24;101566.44;4999812;28;20214;-67
2021/08/12 10:47:55;;;;;;;5.57;2.90;;;;;;;34.23;21.53;101558.56;4988815;28;20186;-61
2021/08/12 10:50:26;;;;;;;6.57;3.00;;;;;;;34.28;21.09;101566.28;5002355;28;20189;-61
2021/08/12 10:53:07;;;;;;;4.72;3.05;;;;;;;34.48;21.53;101573.94;5004809;28;20186;-61
2021/08/12 10:55:58;;;;;;;6.03;2.97;;;;;;;34.54;21.42;101565.84;4998645;28;20185;-61
2021/08/12 10:58:25;;;;;;;6.68;3.03;;;;;;;34.71;20.84;101553.75;4988452;28;20181;-62
2021/08/12 11:00:56;;;;;;;5.35;2.95;;;;;;;34.54;21.05;101565.09;5003896;28;20280;-61
2021/08/12 11:03:34;;;;;;;6.07;2.92;;;;;;;34.70;20.89;101558.72;4999593;28;20192;-61
2021/08/12 11:06:01;;;;;;;4.97;3.33;;;;;;;34.20;20.22;101538.81;4999839;28;20188;-62
2021/08/12 11:08:48;;;;;;;5.78;2.97;;;;;;;34.55;20.94;101547.22;5011899;28;20367;-61
2021/08/12 11:11:15;;;;;;;5.15;2.70;;;;;;;34.47;20.92;101558.00;5010653;28;20240;-61
2021/08/12 11:13:41;;;;;;;6.70;3.30;;;;;;;34.28;20.25;101556.88;5011433;28;20208;-61
2021/08/12 11:16:06;;;;;;;4.97;3.13;;;;;;;34.37;21.46;101556.28;5016150;28;20641;-62
2021/08/12 11:18:49;;;;;;;4.93;3.03;;;;;;;34.44;21.44;101555.53;5008834;28;20208;-61
2021/08/12 11:21:30;;;;;;;6.97;3.05;;;;;;;34.62;20.55;101560.88;5012695;28;20679;-61
2021/08/12 11:23:59;;;;;;;8.27;3.42;;;;;;;34.49;21.01;101552.44;5008245;28;20189;-61
2021/08/12 11:26:26;;;;;;;4.50;3.30;;;;;;;34.49;20.84;101548.81;5009428;28;20718;-62